sensor_id;sensor_type;location;lat;lon;timestamp;P1;durP1;ratioP1;P2;durP2;ratioP2
68718;SDS011;55696;52.138;5.444;2023-03-12T00:02:18;18.98;;;8.43;;
68718;SDS011;55696;52.138;5.444;2023-03-12T00:04:46;18.67;;;8.07;;
68718;SDS011;55696;52.138;5.444;2023-03-12T00:07:13;18.50;;;8.00;;
68718;SDS011;55696;52.138;5.444;2023-03-12T00:09:40;25.07;;;8.27;;
68718;SDS011;55696;52.138;5.444;2023-03-12T00:12:07;17.35;;;8.02;;
68718;SDS011;55696;52.138;5.444;2023-03-12T00:14:34;13.55;;;6.18;;
68718;SDS011;55696;52.138;5.444;2023-03-12T00:17:02;17.63;;;6.68;;
68718;SDS011;55696;52.138;5.444;2023-03-12T00:19:28;12.05;;;5.90;;
68718;SDS011;55696;52.138;5.444;2023-03-12T00:21:55;13.30;;;6.07;;
68718;SDS011;55696;52.138;5.444;2023-03-12T00:24:22;13.73;;;6.07;;
68718;SDS011;55696;52.138;5.444;2023-03-12T00:26:49;10.75;;;5.82;;
68718;SDS011;55696;52.138;5.444;2023-03-12T00:29:16;13.60;;;6.18;;
68718;SDS011;55696;52.138;5.444;2023-03-12T00:31:42;16.07;;;5.90;;
68718;SDS011;55696;52.138;5.444;2023-03-12T00:34:10;12.55;;;5.57;;
68718;SDS011;55696;52.138;5.444;2023-03-12T00:36:37;17.77;;;6.53;;
68718;SDS011;55696;52.138;5.444;2023-03-12T00:39:05;12.05;;;5.55;;
68718;SDS011;55696;52.138;5.444;2023-03-12T00:41:32;13.57;;;5.83;;
68718;SDS011;55696;52.138;5.444;2023-03-12T00:43:59;12.38;;;5.65;;
68718;SDS011;55696;52.138;5.444;2023-03-12T00:46:26;17.13;;;6.50;;
68718;SDS011;55696;52.138;5.444;2023-03-12T00:48:53;13.20;;;5.70;;
68718;SDS011;55696;52.138;5.444;2023-03-12T00:51:20;14.50;;;5.87;;
68718;SDS011;55696;52.138;5.444;2023-03-12T00:53:47;14.07;;;6.38;;
68718;SDS011;55696;52.138;5.444;2023-03-12T00:56:13;11.98;;;5.75;;
68718;SDS011;55696;52.138;5.444;2023-03-12T00:58:40;12.43;;;5.72;;
68718;SDS011;55696;52.138;5.444;2023-03-12T01:01:08;12.18;;;5.25;;
68718;SDS011;55696;52.138;5.444;2023-03-12T01:03:36;12.65;;;4.68;;
68718;SDS011;55696;52.138;5.444;2023-03-12T01:06:03;9.32;;;4.20;;
68718;SDS011;55696;52.138;5.444;2023-03-12T01:08:31;13.15;;;4.75;;
68718;SDS011;55696;52.138;5.444;2023-03-12T01:10:58;9.47;;;4.13;;
68718;SDS011;55696;52.138;5.444;2023-03-12T01:13:25;11.52;;;4.82;;
68718;SDS011;55696;52.138;5.444;2023-03-12T01:15:52;10.25;;;4.28;;
68718;SDS011;55696;52.138;5.444;2023-03-12T01:18:19;14.73;;;4.80;;
68718;SDS011;55696;52.138;5.444;2023-03-12T01:20:46;9.43;;;4.50;;
68718;SDS011;55696;52.138;5.444;2023-03-12T01:23:13;11.18;;;5.22;;
68718;SDS011;55696;52.138;5.444;2023-03-12T01:25:41;9.98;;;4.47;;
68718;SDS011;55696;52.138;5.444;2023-03-12T01:28:08;12.32;;;4.85;;
68718;SDS011;55696;52.138;5.444;2023-03-12T01:30:35;13.18;;;4.90;;
68718;SDS011;55696;52.138;5.444;2023-03-12T01:33:02;17.92;;;4.53;;
68718;SDS011;55696;52.138;5.444;2023-03-12T01:35:29;13.13;;;4.35;;
68718;SDS011;55696;52.138;5.444;2023-03-12T01:38:00;8.50;;;4.03;;
68718;SDS011;55696;52.138;5.444;2023-03-12T01:40:27;9.20;;;3.95;;
68718;SDS011;55696;52.138;5.444;2023-03-12T01:42:56;7.60;;;3.85;;
68718;SDS011;55696;52.138;5.444;2023-03-12T01:48:35;10.95;;;4.13;;
68718;SDS011;55696;52.138;5.444;2023-03-12T01:51:08;6.65;;;3.63;;
68718;SDS011;55696;52.138;5.444;2023-03-12T01:53:38;7.78;;;3.50;;
68718;SDS011;55696;52.138;5.444;2023-03-12T01:56:09;11.95;;;3.67;;
68718;SDS011;55696;52.138;5.444;2023-03-12T01:58:39;7.63;;;3.73;;
68718;SDS011;55696;52.138;5.444;2023-03-12T02:01:11;7.45;;;3.70;;
68718;SDS011;55696;52.138;5.444;2023-03-12T02:03:39;7.65;;;3.33;;
68718;SDS011;55696;52.138;5.444;2023-03-12T02:06:08;7.53;;;3.47;;
68718;SDS011;55696;52.138;5.444;2023-03-12T02:08:41;8.30;;;3.77;;
68718;SDS011;55696;52.138;5.444;2023-03-12T02:11:11;10.68;;;4.03;;
68718;SDS011;55696;52.138;5.444;2023-03-12T02:13:39;13.13;;;4.15;;
68718;SDS011;55696;52.138;5.444;2023-03-12T02:16:06;10.45;;;3.63;;
68718;SDS011;55696;52.138;5.444;2023-03-12T02:18:34;7.37;;;3.50;;
68718;SDS011;55696;52.138;5.444;2023-03-12T02:21:04;10.05;;;3.38;;
68718;SDS011;55696;52.138;5.444;2023-03-12T02:26:14;7.80;;;3.30;;
68718;SDS011;55696;52.138;5.444;2023-03-12T02:28:43;7.80;;;3.05;;
68718;SDS011;55696;52.138;5.444;2023-03-12T02:31:12;9.38;;;3.05;;
68718;SDS011;55696;52.138;5.444;2023-03-12T02:33:42;6.72;;;3.22;;
68718;SDS011;55696;52.138;5.444;2023-03-12T02:36:09;8.13;;;3.72;;
68718;SDS011;55696;52.138;5.444;2023-03-12T02:43:38;6.30;;;3.00;;
68718;SDS011;55696;52.138;5.444;2023-03-12T02:46:06;8.50;;;3.15;;
68718;SDS011;55696;52.138;5.444;2023-03-12T02:48:33;8.35;;;2.78;;
68718;SDS011;55696;52.138;5.444;2023-03-12T02:51:01;9.83;;;3.50;;
68718;SDS011;55696;52.138;5.444;2023-03-12T02:53:28;9.38;;;3.35;;
68718;SDS011;55696;52.138;5.444;2023-03-12T02:55:55;9.07;;;2.80;;
68718;SDS011;55696;52.138;5.444;2023-03-12T02:58:22;8.38;;;3.38;;
68718;SDS011;55696;52.138;5.444;2023-03-12T03:00:49;9.90;;;3.20;;
68718;SDS011;55696;52.138;5.444;2023-03-12T03:03:16;8.63;;;3.38;;
68718;SDS011;55696;52.138;5.444;2023-03-12T03:05:43;5.25;;;2.47;;
68718;SDS011;55696;52.138;5.444;2023-03-12T03:08:10;11.20;;;3.53;;
68718;SDS011;55696;52.138;5.444;2023-03-12T03:10:37;8.10;;;3.13;;
68718;SDS011;55696;52.138;5.444;2023-03-12T03:13:04;6.60;;;3.20;;
68718;SDS011;55696;52.138;5.444;2023-03-12T03:15:31;8.10;;;2.70;;
68718;SDS011;55696;52.138;5.444;2023-03-12T03:17:59;7.28;;;3.35;;
68718;SDS011;55696;52.138;5.444;2023-03-12T03:20:29;9.13;;;3.33;;
68718;SDS011;55696;52.138;5.444;2023-03-12T03:22:57;7.20;;;2.67;;
68718;SDS011;55696;52.138;5.444;2023-03-12T03:25:23;12.57;;;3.33;;
68718;SDS011;55696;52.138;5.444;2023-03-12T03:27:51;6.95;;;2.50;;
68718;SDS011;55696;52.138;5.444;2023-03-12T03:30:17;8.88;;;3.30;;
68718;SDS011;55696;52.138;5.444;2023-03-12T03:32:48;7.72;;;2.72;;
68718;SDS011;55696;52.138;5.444;2023-03-12T03:35:16;6.07;;;2.33;;
68718;SDS011;55696;52.138;5.444;2023-03-12T03:37:44;7.47;;;2.90;;
68718;SDS011;55696;52.138;5.444;2023-03-12T03:40:11;8.40;;;2.80;;
68718;SDS011;55696;52.138;5.444;2023-03-12T03:42:38;8.48;;;3.00;;
68718;SDS011;55696;52.138;5.444;2023-03-12T03:45:06;8.57;;;3.10;;
68718;SDS011;55696;52.138;5.444;2023-03-12T03:47:35;8.80;;;3.27;;
68718;SDS011;55696;52.138;5.444;2023-03-12T03:50:03;6.82;;;2.65;;
68718;SDS011;55696;52.138;5.444;2023-03-12T03:52:31;6.60;;;3.28;;
68718;SDS011;55696;52.138;5.444;2023-03-12T03:54:58;7.15;;;2.70;;
68718;SDS011;55696;52.138;5.444;2023-03-12T03:57:26;7.83;;;2.63;;
68718;SDS011;55696;52.138;5.444;2023-03-12T03:59:53;7.05;;;2.40;;
68718;SDS011;55696;52.138;5.444;2023-03-12T04:02:20;8.32;;;2.95;;
68718;SDS011;55696;52.138;5.444;2023-03-12T04:04:48;7.03;;;2.67;;
68718;SDS011;55696;52.138;5.444;2023-03-12T04:07:16;8.50;;;3.33;;
68718;SDS011;55696;52.138;5.444;2023-03-12T04:09:44;7.20;;;2.60;;
68718;SDS011;55696;52.138;5.444;2023-03-12T04:12:11;7.63;;;2.60;;
68718;SDS011;55696;52.138;5.444;2023-03-12T04:14:40;12.88;;;3.28;;
68718;SDS011;55696;52.138;5.444;2023-03-12T04:17:08;4.38;;;2.38;;
68718;SDS011;55696;52.138;5.444;2023-03-12T04:19:35;5.20;;;2.80;;
68718;SDS011;55696;52.138;5.444;2023-03-12T04:22:04;6.78;;;2.80;;
68718;SDS011;55696;52.138;5.444;2023-03-12T04:24:31;7.13;;;2.67;;
68718;SDS011;55696;52.138;5.444;2023-03-12T04:26:58;6.55;;;2.47;;
68718;SDS011;55696;52.138;5.444;2023-03-12T04:29:25;5.80;;;2.50;;
68718;SDS011;55696;52.138;5.444;2023-03-12T04:31:52;5.30;;;2.20;;
68718;SDS011;55696;52.138;5.444;2023-03-12T04:34:20;6.32;;;2.40;;
68718;SDS011;55696;52.138;5.444;2023-03-12T04:36:48;6.65;;;2.30;;
68718;SDS011;55696;52.138;5.444;2023-03-12T04:39:16;5.35;;;2.28;;
68718;SDS011;55696;52.138;5.444;2023-03-12T04:41:47;6.37;;;2.53;;
68718;SDS011;55696;52.138;5.444;2023-03-12T04:44:14;7.22;;;2.53;;
68718;SDS011;55696;52.138;5.444;2023-03-12T04:46:41;7.43;;;2.55;;
68718;SDS011;55696;52.138;5.444;2023-03-12T04:49:12;7.65;;;3.13;;
68718;SDS011;55696;52.138;5.444;2023-03-12T04:51:40;10.77;;;2.60;;
68718;SDS011;55696;52.138;5.444;2023-03-12T04:54:08;5.40;;;2.45;;
68718;SDS011;55696;52.138;5.444;2023-03-12T04:56:36;5.63;;;3.03;;
68718;SDS011;55696;52.138;5.444;2023-03-12T04:59:03;5.93;;;2.50;;
68718;SDS011;55696;52.138;5.444;2023-03-12T05:01:31;8.27;;;3.08;;
68718;SDS011;55696;52.138;5.444;2023-03-12T05:04:05;7.95;;;2.80;;
68718;SDS011;55696;52.138;5.444;2023-03-12T05:06:32;5.95;;;3.20;;
68718;SDS011;55696;52.138;5.444;2023-03-12T05:09:00;8.98;;;3.50;;
68718;SDS011;55696;52.138;5.444;2023-03-12T05:11:27;9.17;;;3.70;;
68718;SDS011;55696;52.138;5.444;2023-03-12T05:13:54;10.77;;;3.25;;
68718;SDS011;55696;52.138;5.444;2023-03-12T05:16:21;8.90;;;3.15;;
68718;SDS011;55696;52.138;5.444;2023-03-12T05:18:49;11.00;;;3.65;;
68718;SDS011;55696;52.138;5.444;2023-03-12T05:21:17;10.07;;;3.42;;
68718;SDS011;55696;52.138;5.444;2023-03-12T05:23:48;8.35;;;3.30;;
68718;SDS011;55696;52.138;5.444;2023-03-12T05:26:20;10.05;;;3.30;;
68718;SDS011;55696;52.138;5.444;2023-03-12T05:28:51;9.20;;;3.20;;
68718;SDS011;55696;52.138;5.444;2023-03-12T05:31:19;7.30;;;3.28;;
68718;SDS011;55696;52.138;5.444;2023-03-12T05:33:47;7.20;;;3.10;;
68718;SDS011;55696;52.138;5.444;2023-03-12T05:36:18;8.07;;;3.47;;
68718;SDS011;55696;52.138;5.444;2023-03-12T05:38:45;7.20;;;3.45;;
68718;SDS011;55696;52.138;5.444;2023-03-12T05:41:24;9.37;;;3.40;;
68718;SDS011;55696;52.138;5.444;2023-03-12T05:43:56;7.88;;;3.25;;
68718;SDS011;55696;52.138;5.444;2023-03-12T05:46:26;10.38;;;3.33;;
68718;SDS011;55696;52.138;5.444;2023-03-12T05:48:53;10.65;;;3.28;;
68718;SDS011;55696;52.138;5.444;2023-03-12T05:51:21;9.27;;;3.63;;
68718;SDS011;55696;52.138;5.444;2023-03-12T05:53:48;9.30;;;3.22;;
68718;SDS011;55696;52.138;5.444;2023-03-12T05:56:15;9.80;;;3.88;;
68718;SDS011;55696;52.138;5.444;2023-03-12T05:58:43;7.40;;;3.50;;
68718;SDS011;55696;52.138;5.444;2023-03-12T06:01:14;6.93;;;3.67;;
68718;SDS011;55696;52.138;5.444;2023-03-12T06:03:44;8.52;;;3.10;;
68718;SDS011;55696;52.138;5.444;2023-03-12T06:06:11;5.60;;;2.95;;
68718;SDS011;55696;52.138;5.444;2023-03-12T06:08:39;10.02;;;3.00;;
68718;SDS011;55696;52.138;5.444;2023-03-12T06:11:08;9.50;;;3.43;;
68718;SDS011;55696;52.138;5.444;2023-03-12T06:13:35;12.38;;;3.42;;
68718;SDS011;55696;52.138;5.444;2023-03-12T06:16:06;7.50;;;3.10;;
68718;SDS011;55696;52.138;5.444;2023-03-12T06:18:37;13.75;;;3.75;;
68718;SDS011;55696;52.138;5.444;2023-03-12T06:23:38;9.00;;;4.13;;
68718;SDS011;55696;52.138;5.444;2023-03-12T06:26:09;9.63;;;3.70;;
68718;SDS011;55696;52.138;5.444;2023-03-12T06:28:37;9.45;;;2.97;;
68718;SDS011;55696;52.138;5.444;2023-03-12T06:31:04;9.02;;;3.15;;
68718;SDS011;55696;52.138;5.444;2023-03-12T06:33:31;8.67;;;3.50;;
68718;SDS011;55696;52.138;5.444;2023-03-12T06:35:59;8.98;;;3.08;;
68718;SDS011;55696;52.138;5.444;2023-03-12T06:38:27;7.07;;;3.30;;
68718;SDS011;55696;52.138;5.444;2023-03-12T06:40:55;8.82;;;3.28;;
68718;SDS011;55696;52.138;5.444;2023-03-12T06:43:24;10.70;;;3.50;;
68718;SDS011;55696;52.138;5.444;2023-03-12T06:45:53;7.85;;;3.10;;
68718;SDS011;55696;52.138;5.444;2023-03-12T06:48:21;7.32;;;3.28;;
68718;SDS011;55696;52.138;5.444;2023-03-12T06:50:49;7.68;;;3.60;;
68718;SDS011;55696;52.138;5.444;2023-03-12T06:53:17;13.43;;;3.13;;
68718;SDS011;55696;52.138;5.444;2023-03-12T06:55:44;9.03;;;3.40;;
68718;SDS011;55696;52.138;5.444;2023-03-12T06:58:12;12.05;;;3.72;;
68718;SDS011;55696;52.138;5.444;2023-03-12T07:00:39;7.47;;;3.42;;
68718;SDS011;55696;52.138;5.444;2023-03-12T07:03:06;10.60;;;4.00;;
68718;SDS011;55696;52.138;5.444;2023-03-12T07:05:33;8.07;;;4.00;;
68718;SDS011;55696;52.138;5.444;2023-03-12T07:07:59;10.38;;;4.38;;
68718;SDS011;55696;52.138;5.444;2023-03-12T07:10:27;14.80;;;3.80;;
68718;SDS011;55696;52.138;5.444;2023-03-12T07:12:55;8.15;;;3.80;;
68718;SDS011;55696;52.138;5.444;2023-03-12T07:15:22;7.75;;;4.43;;
68718;SDS011;55696;52.138;5.444;2023-03-12T07:17:49;13.93;;;4.20;;
68718;SDS011;55696;52.138;5.444;2023-03-12T07:20:16;10.40;;;4.18;;
68718;SDS011;55696;52.138;5.444;2023-03-12T07:22:43;8.23;;;4.35;;
68718;SDS011;55696;52.138;5.444;2023-03-12T07:25:10;10.02;;;4.03;;
68718;SDS011;55696;52.138;5.444;2023-03-12T07:27:37;6.80;;;3.90;;
68718;SDS011;55696;52.138;5.444;2023-03-12T07:30:04;13.40;;;4.68;;
68718;SDS011;55696;52.138;5.444;2023-03-12T07:32:31;14.07;;;4.85;;
68718;SDS011;55696;52.138;5.444;2023-03-12T07:34:58;8.95;;;3.97;;
68718;SDS011;55696;52.138;5.444;2023-03-12T07:37:25;11.10;;;4.40;;
68718;SDS011;55696;52.138;5.444;2023-03-12T07:39:52;10.13;;;3.90;;
68718;SDS011;55696;52.138;5.444;2023-03-12T07:42:20;7.05;;;4.25;;
68718;SDS011;55696;52.138;5.444;2023-03-12T07:44:46;7.07;;;3.88;;
68718;SDS011;55696;52.138;5.444;2023-03-12T07:47:13;10.77;;;4.40;;
68718;SDS011;55696;52.138;5.444;2023-03-12T07:49:49;8.25;;;3.92;;
68718;SDS011;55696;52.138;5.444;2023-03-12T07:52:17;8.77;;;4.68;;
68718;SDS011;55696;52.138;5.444;2023-03-12T07:54:45;11.98;;;5.28;;
68718;SDS011;55696;52.138;5.444;2023-03-12T08:23:59;12.80;;;4.43;;
68718;SDS011;55696;52.138;5.444;2023-03-12T08:26:40;11.88;;;5.35;;
68718;SDS011;55696;52.138;5.444;2023-03-12T08:29:21;11.18;;;5.20;;
68718;SDS011;55696;52.138;5.444;2023-03-12T08:31:48;11.98;;;5.40;;
68718;SDS011;55696;52.138;5.444;2023-03-12T08:34:30;11.47;;;5.07;;
68718;SDS011;55696;52.138;5.444;2023-03-12T08:36:56;11.98;;;5.25;;
68718;SDS011;55696;52.138;5.444;2023-03-12T08:39:23;9.63;;;5.10;;
68718;SDS011;55696;52.138;5.444;2023-03-12T08:41:50;9.75;;;5.38;;
68718;SDS011;55696;52.138;5.444;2023-03-12T08:44:20;9.60;;;4.60;;
68718;SDS011;55696;52.138;5.444;2023-03-12T08:46:48;8.07;;;4.93;;
68718;SDS011;55696;52.138;5.444;2023-03-12T08:49:15;8.45;;;5.30;;
68718;SDS011;55696;52.138;5.444;2023-03-12T08:51:42;11.52;;;5.25;;
68718;SDS011;55696;52.138;5.444;2023-03-12T08:54:08;10.15;;;5.47;;
68718;SDS011;55696;52.138;5.444;2023-03-12T08:56:35;9.93;;;5.00;;
68718;SDS011;55696;52.138;5.444;2023-03-12T08:59:07;12.30;;;6.10;;
68718;SDS011;55696;52.138;5.444;2023-03-12T09:01:35;8.73;;;5.70;;
68718;SDS011;55696;52.138;5.444;2023-03-12T09:04:02;9.55;;;5.22;;
68718;SDS011;55696;52.138;5.444;2023-03-12T09:06:30;12.75;;;5.57;;
68718;SDS011;55696;52.138;5.444;2023-03-12T09:08:58;9.47;;;5.57;;
68718;SDS011;55696;52.138;5.444;2023-03-12T09:11:33;10.30;;;5.47;;
68718;SDS011;55696;52.138;5.444;2023-03-12T09:14:01;10.95;;;6.00;;
68718;SDS011;55696;52.138;5.444;2023-03-12T09:16:48;10.27;;;6.03;;
68718;SDS011;55696;52.138;5.444;2023-03-12T09:19:15;11.30;;;6.67;;
68718;SDS011;55696;52.138;5.444;2023-03-12T09:21:42;13.70;;;6.85;;
68718;SDS011;55696;52.138;5.444;2023-03-12T09:24:09;10.45;;;5.93;;
68718;SDS011;55696;52.138;5.444;2023-03-12T09:26:36;10.77;;;6.72;;
68718;SDS011;55696;52.138;5.444;2023-03-12T09:29:03;12.02;;;6.50;;
68718;SDS011;55696;52.138;5.444;2023-03-12T09:31:31;12.90;;;7.73;;
68718;SDS011;55696;52.138;5.444;2023-03-12T09:33:58;12.40;;;6.95;;
68718;SDS011;55696;52.138;5.444;2023-03-12T09:36:25;12.95;;;7.28;;
68718;SDS011;55696;52.138;5.444;2023-03-12T09:38:52;15.27;;;8.02;;
68718;SDS011;55696;52.138;5.444;2023-03-12T09:41:21;23.48;;;8.75;;
68718;SDS011;55696;52.138;5.444;2023-03-12T09:46:32;13.52;;;7.82;;
68718;SDS011;55696;52.138;5.444;2023-03-12T09:49:04;12.70;;;7.45;;
68718;SDS011;55696;52.138;5.444;2023-03-12T09:51:46;16.15;;;8.85;;
68718;SDS011;55696;52.138;5.444;2023-03-12T09:54:22;17.63;;;9.63;;
68718;SDS011;55696;52.138;5.444;2023-03-12T09:56:54;17.50;;;8.60;;
68718;SDS011;55696;52.138;5.444;2023-03-12T09:59:25;17.73;;;8.80;;
68718;SDS011;55696;52.138;5.444;2023-03-12T10:01:54;16.40;;;8.98;;
68718;SDS011;55696;52.138;5.444;2023-03-12T10:09:30;20.07;;;10.03;;
68718;SDS011;55696;52.138;5.444;2023-03-12T10:15:26;17.77;;;10.25;;
68718;SDS011;55696;52.138;5.444;2023-03-12T10:26:47;19.65;;;10.35;;
68718;SDS011;55696;52.138;5.444;2023-03-12T10:29:16;16.55;;;9.73;;
68718;SDS011;55696;52.138;5.444;2023-03-12T10:31:55;19.67;;;10.18;;
68718;SDS011;55696;52.138;5.444;2023-03-12T10:37:32;19.57;;;10.40;;
68718;SDS011;55696;52.138;5.444;2023-03-12T10:40:04;18.25;;;10.77;;
68718;SDS011;55696;52.138;5.444;2023-03-12T10:42:31;21.33;;;10.63;;
68718;SDS011;55696;52.138;5.444;2023-03-12T10:47:35;21.05;;;11.40;;
68718;SDS011;55696;52.138;5.444;2023-03-12T10:50:20;20.43;;;10.80;;
68718;SDS011;55696;52.138;5.444;2023-03-12T10:52:50;17.17;;;9.98;;
68718;SDS011;55696;52.138;5.444;2023-03-12T10:55:27;17.35;;;10.13;;
68718;SDS011;55696;52.138;5.444;2023-03-12T10:57:55;18.33;;;9.95;;
68718;SDS011;55696;52.138;5.444;2023-03-12T11:00:24;19.75;;;10.98;;
68718;SDS011;55696;52.138;5.444;2023-03-12T11:05:47;17.05;;;10.60;;
68718;SDS011;55696;52.138;5.444;2023-03-12T11:08:22;20.05;;;10.77;;
68718;SDS011;55696;52.138;5.444;2023-03-12T11:10:55;24.08;;;10.88;;
68718;SDS011;55696;52.138;5.444;2023-03-12T11:13:26;17.58;;;9.93;;
68718;SDS011;55696;52.138;5.444;2023-03-12T11:15:56;19.93;;;10.03;;
68718;SDS011;55696;52.138;5.444;2023-03-12T11:20:55;20.80;;;10.48;;
68718;SDS011;55696;52.138;5.444;2023-03-12T11:23:37;21.65;;;10.20;;
68718;SDS011;55696;52.138;5.444;2023-03-12T11:26:20;23.98;;;9.77;;
68718;SDS011;55696;52.138;5.444;2023-03-12T11:28:55;21.47;;;8.73;;
68718;SDS011;55696;52.138;5.444;2023-03-12T11:31:28;19.48;;;8.68;;
68718;SDS011;55696;52.138;5.444;2023-03-12T11:34:02;22.65;;;9.25;;
68718;SDS011;55696;52.138;5.444;2023-03-12T11:39:14;22.83;;;9.23;;
68718;SDS011;55696;52.138;5.444;2023-03-12T11:41:58;24.67;;;8.00;;
68718;SDS011;55696;52.138;5.444;2023-03-12T11:47:41;17.35;;;7.38;;
68718;SDS011;55696;52.138;5.444;2023-03-12T12:07:04;19.38;;;5.85;;
68718;SDS011;55696;52.138;5.444;2023-03-12T12:10:03;27.57;;;6.30;;
68718;SDS011;55696;52.138;5.444;2023-03-12T12:24:08;19.13;;;5.33;;
68718;SDS011;55696;52.138;5.444;2023-03-12T12:26:43;18.88;;;5.78;;
68718;SDS011;55696;52.138;5.444;2023-03-12T12:29:19;21.00;;;5.68;;
68718;SDS011;55696;52.138;5.444;2023-03-12T12:31:58;20.88;;;6.15;;
68718;SDS011;55696;52.138;5.444;2023-03-12T12:40:09;22.27;;;5.03;;
68718;SDS011;55696;52.138;5.444;2023-03-12T12:42:41;26.85;;;6.40;;
68718;SDS011;55696;52.138;5.444;2023-03-12T12:45:23;24.20;;;6.20;;
68718;SDS011;55696;52.138;5.444;2023-03-12T12:47:57;29.75;;;5.90;;
68718;SDS011;55696;52.138;5.444;2023-03-12T12:50:29;25.50;;;5.87;;
68718;SDS011;55696;52.138;5.444;2023-03-12T12:55:34;26.98;;;6.60;;
68718;SDS011;55696;52.138;5.444;2023-03-12T12:58:13;26.88;;;6.97;;
68718;SDS011;55696;52.138;5.444;2023-03-12T13:03:17;27.63;;;5.93;;
68718;SDS011;55696;52.138;5.444;2023-03-12T13:08:31;27.88;;;5.50;;
68718;SDS011;55696;52.138;5.444;2023-03-12T13:13:47;36.40;;;6.95;;
68718;SDS011;55696;52.138;5.444;2023-03-12T13:16:18;31.63;;;5.77;;
68718;SDS011;55696;52.138;5.444;2023-03-12T13:18:59;30.25;;;7.13;;
68718;SDS011;55696;52.138;5.444;2023-03-12T13:24:10;29.25;;;6.43;;
68718;SDS011;55696;52.138;5.444;2023-03-12T13:26:55;29.05;;;6.07;;
68718;SDS011;55696;52.138;5.444;2023-03-12T13:29:35;34.17;;;7.27;;
68718;SDS011;55696;52.138;5.444;2023-03-12T13:32:04;25.65;;;5.97;;
68718;SDS011;55696;52.138;5.444;2023-03-12T13:34:41;34.08;;;6.93;;
68718;SDS011;55696;52.138;5.444;2023-03-12T13:37:17;34.63;;;5.97;;
68718;SDS011;55696;52.138;5.444;2023-03-12T13:39:53;38.25;;;6.85;;
68718;SDS011;55696;52.138;5.444;2023-03-12T13:42:25;39.73;;;7.57;;
68718;SDS011;55696;52.138;5.444;2023-03-12T13:47:54;29.90;;;6.90;;
68718;SDS011;55696;52.138;5.444;2023-03-12T13:50:24;37.30;;;6.60;;
68718;SDS011;55696;52.138;5.444;2023-03-12T13:53:02;30.65;;;6.22;;
68718;SDS011;55696;52.138;5.444;2023-03-12T13:55:32;28.30;;;5.93;;
68718;SDS011;55696;52.138;5.444;2023-03-12T13:58:08;26.23;;;5.18;;
68718;SDS011;55696;52.138;5.444;2023-03-12T14:00:59;36.15;;;5.55;;
68718;SDS011;55696;52.138;5.444;2023-03-12T14:11:29;26.63;;;5.53;;
68718;SDS011;55696;52.138;5.444;2023-03-12T14:17:15;28.15;;;4.95;;
68718;SDS011;55696;52.138;5.444;2023-03-12T14:19:50;30.55;;;5.18;;
68718;SDS011;55696;52.138;5.444;2023-03-12T14:22:34;23.73;;;4.77;;
68718;SDS011;55696;52.138;5.444;2023-03-12T14:25:22;27.38;;;5.13;;
68718;SDS011;55696;52.138;5.444;2023-03-12T14:27:52;28.10;;;5.70;;
68718;SDS011;55696;52.138;5.444;2023-03-12T14:33:10;30.85;;;5.53;;
68718;SDS011;55696;52.138;5.444;2023-03-12T14:35:41;27.83;;;3.87;;
68718;SDS011;55696;52.138;5.444;2023-03-12T14:38:25;21.77;;;3.58;;
68718;SDS011;55696;52.138;5.444;2023-03-12T14:41:03;22.10;;;4.15;;
68718;SDS011;55696;52.138;5.444;2023-03-12T14:43:39;24.13;;;3.88;;
68718;SDS011;55696;52.138;5.444;2023-03-12T14:46:15;21.42;;;4.20;;
68718;SDS011;55696;52.138;5.444;2023-03-12T14:48:46;15.97;;;3.80;;
68718;SDS011;55696;52.138;5.444;2023-03-12T14:51:19;24.75;;;4.55;;
68718;SDS011;55696;52.138;5.444;2023-03-12T14:53:49;23.40;;;3.38;;
68718;SDS011;55696;52.138;5.444;2023-03-12T14:56:24;22.83;;;3.55;;
68718;SDS011;55696;52.138;5.444;2023-03-12T14:58:58;18.02;;;4.22;;
68718;SDS011;55696;52.138;5.444;2023-03-12T15:01:32;19.93;;;4.17;;
68718;SDS011;55696;52.138;5.444;2023-03-12T15:04:05;22.52;;;3.88;;
68718;SDS011;55696;52.138;5.444;2023-03-12T15:06:45;24.50;;;3.65;;
68718;SDS011;55696;52.138;5.444;2023-03-12T15:09:18;28.25;;;3.85;;
68718;SDS011;55696;52.138;5.444;2023-03-12T15:12:24;25.13;;;4.32;;
68718;SDS011;55696;52.138;5.444;2023-03-12T15:14:48;22.03;;;3.80;;
68718;SDS011;55696;52.138;5.444;2023-03-12T15:17:18;23.33;;;4.30;;
68718;SDS011;55696;52.138;5.444;2023-03-12T15:19:46;24.10;;;4.07;;
68718;SDS011;55696;52.138;5.444;2023-03-12T15:22:16;25.83;;;4.22;;
68718;SDS011;55696;52.138;5.444;2023-03-12T15:24:46;31.42;;;4.32;;
68718;SDS011;55696;52.138;5.444;2023-03-12T15:27:20;24.30;;;4.23;;
68718;SDS011;55696;52.138;5.444;2023-03-12T15:29:50;28.40;;;4.57;;
68718;SDS011;55696;52.138;5.444;2023-03-12T15:32:18;22.73;;;4.75;;
68718;SDS011;55696;52.138;5.444;2023-03-12T15:34:47;27.08;;;4.57;;
68718;SDS011;55696;52.138;5.444;2023-03-12T15:40:00;26.70;;;4.10;;
68718;SDS011;55696;52.138;5.444;2023-03-12T15:42:35;21.58;;;4.80;;
68718;SDS011;55696;52.138;5.444;2023-03-12T15:45:13;24.20;;;4.20;;
68718;SDS011;55696;52.138;5.444;2023-03-12T15:47:47;17.15;;;3.78;;
68718;SDS011;55696;52.138;5.444;2023-03-12T15:50:18;19.42;;;3.80;;
68718;SDS011;55696;52.138;5.444;2023-03-12T15:53:57;19.93;;;3.97;;
68718;SDS011;55696;52.138;5.444;2023-03-12T15:58:35;21.20;;;3.78;;
68718;SDS011;55696;52.138;5.444;2023-03-12T16:03:41;24.15;;;4.32;;
68718;SDS011;55696;52.138;5.444;2023-03-12T16:06:11;24.83;;;5.17;;
68718;SDS011;55696;52.138;5.444;2023-03-12T16:08:47;20.13;;;4.00;;
68718;SDS011;55696;52.138;5.444;2023-03-12T16:11:17;23.80;;;4.03;;
68718;SDS011;55696;52.138;5.444;2023-03-12T16:13:49;28.27;;;4.70;;
68718;SDS011;55696;52.138;5.444;2023-03-12T16:16:17;22.70;;;4.63;;
68718;SDS011;55696;52.138;5.444;2023-03-12T16:18:44;23.70;;;4.63;;
68718;SDS011;55696;52.138;5.444;2023-03-12T16:21:11;22.15;;;4.10;;
68718;SDS011;55696;52.138;5.444;2023-03-12T16:23:38;26.20;;;4.28;;
68718;SDS011;55696;52.138;5.444;2023-03-12T16:26:05;25.40;;;5.20;;
68718;SDS011;55696;52.138;5.444;2023-03-12T16:28:35;25.40;;;4.45;;
68718;SDS011;55696;52.138;5.444;2023-03-12T16:31:02;31.57;;;4.33;;
68718;SDS011;55696;52.138;5.444;2023-03-12T16:33:35;26.08;;;4.57;;
68718;SDS011;55696;52.138;5.444;2023-03-12T16:36:01;23.08;;;4.05;;
68718;SDS011;55696;52.138;5.444;2023-03-12T16:38:28;26.77;;;4.22;;
68718;SDS011;55696;52.138;5.444;2023-03-12T16:40:55;26.92;;;5.30;;
68718;SDS011;55696;52.138;5.444;2023-03-12T16:43:23;30.87;;;4.70;;
68718;SDS011;55696;52.138;5.444;2023-03-12T16:45:54;25.88;;;4.88;;
68718;SDS011;55696;52.138;5.444;2023-03-12T16:48:23;29.50;;;4.72;;
68718;SDS011;55696;52.138;5.444;2023-03-12T16:50:51;24.35;;;4.30;;
68718;SDS011;55696;52.138;5.444;2023-03-12T16:53:21;25.98;;;4.15;;
68718;SDS011;55696;52.138;5.444;2023-03-12T16:55:49;29.93;;;4.47;;
68718;SDS011;55696;52.138;5.444;2023-03-12T16:58:19;24.55;;;4.15;;
68718;SDS011;55696;52.138;5.444;2023-03-12T17:00:48;29.67;;;4.82;;
68718;SDS011;55696;52.138;5.444;2023-03-12T17:03:28;31.70;;;5.22;;
68718;SDS011;55696;52.138;5.444;2023-03-12T17:06:03;28.17;;;4.40;;
68718;SDS011;55696;52.138;5.444;2023-03-12T17:08:32;36.57;;;5.40;;
68718;SDS011;55696;52.138;5.444;2023-03-12T17:11:01;26.63;;;4.35;;
68718;SDS011;55696;52.138;5.444;2023-03-12T17:13:29;35.15;;;5.28;;
68718;SDS011;55696;52.138;5.444;2023-03-12T17:15:56;23.33;;;3.83;;
68718;SDS011;55696;52.138;5.444;2023-03-12T17:18:23;36.30;;;5.60;;
68718;SDS011;55696;52.138;5.444;2023-03-12T17:20:49;25.97;;;3.97;;
68718;SDS011;55696;52.138;5.444;2023-03-12T17:23:17;30.40;;;4.53;;
68718;SDS011;55696;52.138;5.444;2023-03-12T17:25:44;37.05;;;5.72;;